sensor_id;sensor_type;location;lat;lon;timestamp;pressure;altitude;pressure_sealevel;temperature;humidity
65754;BME280;69207;47.502;18.940;2023-04-24T00:00:13;97314.81;;;15.17;45.92
65754;BME280;69207;47.502;18.940;2023-04-24T00:01:17;97318.97;;;15.18;45.74
65754;BME280;69207;47.502;18.940;2023-04-24T00:02:20;97325.87;;;15.17;45.68
65754;BME280;69207;47.502;18.940;2023-04-24T00:03:23;97320.72;;;15.09;46.04
65754;BME280;69207;47.502;18.940;2023-04-24T00:04:27;97323.16;;;15.19;45.63
65754;BME280;69207;47.502;18.940;2023-04-24T00:05:30;97324.91;;;15.10;46.02
65754;BME280;69207;47.502;18.940;2023-04-24T00:06:33;97331.00;;;15.07;46.24
65754;BME280;69207;47.502;18.940;2023-04-24T00:07:36;97326.59;;;14.99;46.58
65754;BME280;69207;47.502;18.940;2023-04-24T00:08:39;97325.00;;;14.94;46.88
65754;BME280;69207;47.502;18.940;2023-04-24T00:09:43;97325.00;;;15.12;45.89
65754;BME280;69207;47.502;18.940;2023-04-24T00:10:46;97330.44;;;15.10;46.10
65754;BME280;69207;47.502;18.940;2023-04-24T00:11:50;97330.38;;;15.08;46.20
65754;BME280;69207;47.502;18.940;2023-04-24T00:12:53;97329.81;;;15.12;46.11
65754;BME280;69207;47.502;18.940;2023-04-24T00:13:56;97329.66;;;15.08;46.47
65754;BME280;69207;47.502;18.940;2023-04-24T00:14:59;97324.19;;;15.10;46.31
65754;BME280;69207;47.502;18.940;2023-04-24T00:16:04;97332.41;;;15.08;46.46
65754;BME280;69207;47.502;18.940;2023-04-24T00:17:07;97328.00;;;15.00;46.60
65754;BME280;69207;47.502;18.940;2023-04-24T00:18:11;97322.00;;;15.06;46.53
65754;BME280;69207;47.502;18.940;2023-04-24T00:19:14;97323.56;;;15.11;46.43
65754;BME280;69207;47.502;18.940;2023-04-24T00:20:17;97321.69;;;15.16;46.24
65754;BME280;69207;47.502;18.940;2023-04-24T00:21:21;97310.13;;;15.21;46.10
65754;BME280;69207;47.502;18.940;2023-04-24T00:22:28;97320.34;;;15.17;46.12
65754;BME280;69207;47.502;18.940;2023-04-24T00:23:31;97315.28;;;15.11;46.38
65754;BME280;69207;47.502;18.940;2023-04-24T00:24:34;97314.16;;;15.18;45.98
65754;BME280;69207;47.502;18.940;2023-04-24T00:25:37;97319.69;;;15.18;45.99
65754;BME280;69207;47.502;18.940;2023-04-24T00:26:40;97311.31;;;15.16;45.98
65754;BME280;69207;47.502;18.940;2023-04-24T00:27:43;97313.38;;;15.16;45.96
65754;BME280;69207;47.502;18.940;2023-04-24T00:28:46;97301.56;;;15.15;46.00
65754;BME280;69207;47.502;18.940;2023-04-24T00:29:49;97302.78;;;15.10;46.14
65754;BME280;69207;47.502;18.940;2023-04-24T00:30:53;97309.09;;;15.13;45.98
65754;BME280;69207;47.502;18.940;2023-04-24T00:31:56;97309.28;;;15.17;45.56
65754;BME280;69207;47.502;18.940;2023-04-24T00:32:59;97315.28;;;15.11;46.03
65754;BME280;69207;47.502;18.940;2023-04-24T00:34:03;97306.88;;;15.09;45.97
65754;BME280;69207;47.502;18.940;2023-04-24T00:35:06;97311.06;;;15.10;45.63
65754;BME280;69207;47.502;18.940;2023-04-24T00:36:09;97309.87;;;15.15;45.49
65754;BME280;69207;47.502;18.940;2023-04-24T00:37:13;97313.84;;;15.10;45.73
65754;BME280;69207;47.502;18.940;2023-04-24T00:38:16;97313.00;;;15.05;46.13
65754;BME280;69207;47.502;18.940;2023-04-24T00:39:19;97305.06;;;14.98;46.51
65754;BME280;69207;47.502;18.940;2023-04-24T00:40:22;97303.72;;;14.99;46.63
65754;BME280;69207;47.502;18.940;2023-04-24T00:41:26;97300.88;;;14.97;46.96
65754;BME280;69207;47.502;18.940;2023-04-24T00:42:29;97303.50;;;14.93;46.85
65754;BME280;69207;47.502;18.940;2023-04-24T00:43:32;97300.88;;;14.97;46.96
65754;BME280;69207;47.502;18.940;2023-04-24T00:44:35;97305.56;;;14.92;46.93
65754;BME280;69207;47.502;18.940;2023-04-24T00:45:38;97303.81;;;14.83;47.29
65754;BME280;69207;47.502;18.940;2023-04-24T00:46:42;97305.31;;;14.86;47.19
65754;BME280;69207;47.502;18.940;2023-04-24T00:47:45;97299.16;;;14.88;46.90
65754;BME280;69207;47.502;18.940;2023-04-24T00:48:49;97302.66;;;14.88;47.03
65754;BME280;69207;47.502;18.940;2023-04-24T00:49:53;97300.09;;;14.76;47.58
65754;BME280;69207;47.502;18.940;2023-04-24T00:50:56;97296.72;;;14.78;47.21
65754;BME280;69207;47.502;18.940;2023-04-24T00:51:59;97293.31;;;14.79;46.89
65754;BME280;69207;47.502;18.940;2023-04-24T00:53:02;97291.72;;;14.74;47.09
65754;BME280;69207;47.502;18.940;2023-04-24T00:54:05;97292.91;;;14.69;47.23
65754;BME280;69207;47.502;18.940;2023-04-24T00:55:09;97302.06;;;14.74;47.40
65754;BME280;69207;47.502;18.940;2023-04-24T00:56:13;97291.56;;;14.70;47.46
65754;BME280;69207;47.502;18.940;2023-04-24T00:57:16;97287.25;;;14.83;46.65
65754;BME280;69207;47.502;18.940;2023-04-24T00:58:20;97298.28;;;14.83;46.79
65754;BME280;69207;47.502;18.940;2023-04-24T00:59:23;97292.06;;;14.83;46.99
65754;BME280;69207;47.502;18.940;2023-04-24T01:00:27;97294.25;;;14.86;46.93
65754;BME280;69207;47.502;18.940;2023-04-24T01:01:30;97294.66;;;14.78;47.21
65754;BME280;69207;47.502;18.940;2023-04-24T01:02:33;97297.66;;;14.85;46.87
65754;BME280;69207;47.502;18.940;2023-04-24T01:03:38;97295.53;;;14.83;47.00
65754;BME280;69207;47.502;18.940;2023-04-24T01:04:42;97293.47;;;14.84;47.24
65754;BME280;69207;47.502;18.940;2023-04-24T01:05:45;97284.38;;;14.81;47.59
65754;BME280;69207;47.502;18.940;2023-04-24T01:06:50;97295.19;;;14.75;47.69
65754;BME280;69207;47.502;18.940;2023-04-24T01:07:55;97293.72;;;14.72;47.83
65754;BME280;69207;47.502;18.940;2023-04-24T01:08:59;97285.31;;;14.70;47.74
65754;BME280;69207;47.502;18.940;2023-04-24T01:10:03;97280.66;;;14.57;48.10
65754;BME280;69207;47.502;18.940;2023-04-24T01:11:07;97286.81;;;14.55;48.47
65754;BME280;69207;47.502;18.940;2023-04-24T01:12:10;97293.22;;;14.60;48.39
65754;BME280;69207;47.502;18.940;2023-04-24T01:13:13;97290.13;;;14.69;48.35
65754;BME280;69207;47.502;18.940;2023-04-24T01:14:16;97281.69;;;14.65;48.57
65754;BME280;69207;47.502;18.940;2023-04-24T01:15:20;97287.69;;;14.60;48.66
65754;BME280;69207;47.502;18.940;2023-04-24T01:16:23;97282.56;;;14.52;48.86
65754;BME280;69207;47.502;18.940;2023-04-24T01:17:26;97280.44;;;14.50;49.08
65754;BME280;69207;47.502;18.940;2023-04-24T01:18:29;97275.69;;;14.53;49.08
65754;BME280;69207;47.502;18.940;2023-04-24T01:19:32;97269.16;;;14.46;49.23
65754;BME280;69207;47.502;18.940;2023-04-24T01:20:36;97272.28;;;14.55;49.26
65754;BME280;69207;47.502;18.940;2023-04-24T01:21:43;97281.91;;;14.53;49.20
65754;BME280;69207;47.502;18.940;2023-04-24T01:22:46;97280.16;;;14.44;49.44
65754;BME280;69207;47.502;18.940;2023-04-24T01:23:49;97280.06;;;14.42;49.62
65754;BME280;69207;47.502;18.940;2023-04-24T01:24:53;97280.22;;;14.46;49.88
65754;BME280;69207;47.502;18.940;2023-04-24T01:25:56;97272.13;;;14.50;49.74
65754;BME280;69207;47.502;18.940;2023-04-24T01:26:59;97272.66;;;14.47;49.85
65754;BME280;69207;47.502;18.940;2023-04-24T01:28:04;97270.97;;;14.56;50.02
65754;BME280;69207;47.502;18.940;2023-04-24T01:29:07;97264.97;;;14.61;49.75
65754;BME280;69207;47.502;18.940;2023-04-24T01:30:11;97250.09;;;14.52;50.07
65754;BME280;69207;47.502;18.940;2023-04-24T01:31:15;97259.47;;;14.45;50.38
65754;BME280;69207;47.502;18.940;2023-04-24T01:32:18;97263.94;;;14.37;50.85
65754;BME280;69207;47.502;18.940;2023-04-24T01:33:22;97251.41;;;14.34;51.84
65754;BME280;69207;47.502;18.940;2023-04-24T01:34:26;97257.41;;;14.28;53.28
65754;BME280;69207;47.502;18.940;2023-04-24T01:35:30;97255.69;;;14.21;54.60
65754;BME280;69207;47.502;18.940;2023-04-24T01:36:34;97247.97;;;14.17;55.51
65754;BME280;69207;47.502;18.940;2023-04-24T01:37:38;97243.88;;;14.18;55.42
65754;BME280;69207;47.502;18.940;2023-04-24T01:38:42;97244.00;;;14.05;56.30
65754;BME280;69207;47.502;18.940;2023-04-24T01:39:45;97245.88;;;14.00;56.76
65754;BME280;69207;47.502;18.940;2023-04-24T01:40:49;97235.97;;;14.11;56.38
65754;BME280;69207;47.502;18.940;2023-04-24T01:41:52;97243.91;;;14.03;57.05
65754;BME280;69207;47.502;18.940;2023-04-24T01:42:57;97236.72;;;13.95;57.11
65754;BME280;69207;47.502;18.940;2023-04-24T01:44:00;97243.34;;;13.88;57.70
65754;BME280;69207;47.502;18.940;2023-04-24T01:45:04;97236.28;;;13.85;57.98
65754;BME280;69207;47.502;18.940;2023-04-24T01:46:08;97233.22;;;13.77;58.81
65754;BME280;69207;47.502;18.940;2023-04-24T01:47:11;97237.66;;;13.68;59.28
65754;BME280;69207;47.502;18.940;2023-04-24T01:48:14;97240.50;;;13.55;60.08
65754;BME280;69207;47.502;18.940;2023-04-24T01:49:18;97234.19;;;13.52;60.31
65754;BME280;69207;47.502;18.940;2023-04-24T01:50:21;97231.44;;;13.68;60.40
65754;BME280;69207;47.502;18.940;2023-04-24T01:51:24;97231.06;;;13.60;60.34
65754;BME280;69207;47.502;18.940;2023-04-24T01:52:27;97232.16;;;13.53;60.96
65754;BME280;69207;47.502;18.940;2023-04-24T01:53:31;97230.22;;;13.55;61.01
65754;BME280;69207;47.502;18.940;2023-04-24T01:54:34;97222.72;;;13.42;61.48
65754;BME280;69207;47.502;18.940;2023-04-24T01:55:37;97227.09;;;13.31;62.13
65754;BME280;69207;47.502;18.940;2023-04-24T01:56:41;97226.63;;;13.21;62.72
65754;BME280;69207;47.502;18.940;2023-04-24T01:57:48;97225.59;;;13.28;62.39
65754;BME280;69207;47.502;18.940;2023-04-24T01:58:52;97222.56;;;13.22;62.88
65754;BME280;69207;47.502;18.940;2023-04-24T01:59:57;97215.78;;;13.25;62.76
65754;BME280;69207;47.502;18.940;2023-04-24T02:01:03;97219.97;;;13.26;62.51
65754;BME280;69207;47.502;18.940;2023-04-24T02:02:07;97214.16;;;13.20;62.56
65754;BME280;69207;47.502;18.940;2023-04-24T02:03:10;97213.13;;;13.27;62.42
65754;BME280;69207;47.502;18.940;2023-04-24T02:04:13;97214.91;;;13.36;62.12
65754;BME280;69207;47.502;18.940;2023-04-24T02:05:18;97208.31;;;13.28;62.41
65754;BME280;69207;47.502;18.940;2023-04-24T02:06:21;97208.56;;;13.18;63.04
65754;BME280;69207;47.502;18.940;2023-04-24T02:07:24;97195.84;;;13.27;62.74
65754;BME280;69207;47.502;18.940;2023-04-24T02:08:28;97196.66;;;13.29;62.49
65754;BME280;69207;47.502;18.940;2023-04-24T02:09:31;97197.81;;;13.24;62.94
65754;BME280;69207;47.502;18.940;2023-04-24T02:10:34;97196.59;;;13.27;62.95
65754;BME280;69207;47.502;18.940;2023-04-24T02:11:37;97185.56;;;13.27;62.93
65754;BME280;69207;47.502;18.940;2023-04-24T02:12:40;97197.81;;;13.24;63.11
65754;BME280;69207;47.502;18.940;2023-04-24T02:13:43;97189.72;;;13.28;62.99
65754;BME280;69207;47.502;18.940;2023-04-24T02:14:46;97190.97;;;13.25;62.96
65754;BME280;69207;47.502;18.940;2023-04-24T02:15:48;97195.84;;;13.27;63.00
65754;BME280;69207;47.502;18.940;2023-04-24T02:16:51;97192.75;;;13.34;62.81
65754;BME280;69207;47.502;18.940;2023-04-24T02:17:56;97196.66;;;13.45;62.28
65754;BME280;69207;47.502;18.940;2023-04-24T02:18:59;97187.50;;;13.40;62.43
65754;BME280;69207;47.502;18.940;2023-04-24T02:20:02;97189.72;;;13.28;62.98
65754;BME280;69207;47.502;18.940;2023-04-24T02:21:06;97191.59;;;13.24;63.24
65754;BME280;69207;47.502;18.940;2023-04-24T02:22:09;97185.62;;;13.29;63.32
65754;BME280;69207;47.502;18.940;2023-04-24T02:23:13;97188.37;;;13.29;63.56
65754;BME280;69207;47.502;18.940;2023-04-24T02:24:16;97183.50;;;13.28;63.76
65754;BME280;69207;47.502;18.940;2023-04-24T02:25:19;97188.37;;;13.29;63.85
65754;BME280;69207;47.502;18.940;2023-04-24T02:26:22;97180.75;;;13.28;63.83
65754;BME280;69207;47.502;18.940;2023-04-24T02:27:25;97184.47;;;13.34;63.81
65754;BME280;69207;47.502;18.940;2023-04-24T02:28:28;97179.47;;;13.31;63.79
65754;BME280;69207;47.502;18.940;2023-04-24T02:29:32;97179.94;;;13.25;64.12
65754;BME280;69207;47.502;18.940;2023-04-24T02:30:35;97185.16;;;13.19;65.04
65754;BME280;69207;47.502;18.940;2023-04-24T02:31:38;97185.16;;;13.19;65.26
65754;BME280;69207;47.502;18.940;2023-04-24T02:32:41;97189.19;;;13.16;65.48
65754;BME280;69207;47.502;18.940;2023-04-24T02:33:44;97182.94;;;13.15;65.52
65754;BME280;69207;47.502;18.940;2023-04-24T02:34:47;97180.63;;;13.26;64.93
65754;BME280;69207;47.502;18.940;2023-04-24T02:35:50;97184.03;;;13.24;65.15
65754;BME280;69207;47.502;18.940;2023-04-24T02:36:53;97185.06;;;13.17;65.45
65754;BME280;69207;47.502;18.940;2023-04-24T02:37:59;97190.59;;;13.17;65.55
65754;BME280;69207;47.502;18.940;2023-04-24T02:39:02;97189.19;;;13.16;65.59
65754;BME280;69207;47.502;18.940;2023-04-24T02:40:06;97194.69;;;13.16;65.65
65754;BME280;69207;47.502;18.940;2023-04-24T02:41:10;97195.06;;;13.24;65.19
65754;BME280;69207;47.502;18.940;2023-04-24T02:42:13;97196.41;;;13.23;65.25
65754;BME280;69207;47.502;18.940;2023-04-24T02:43:16;97194.06;;;13.17;65.63
65754;BME280;69207;47.502;18.940;2023-04-24T02:44:19;97196.72;;;13.15;65.73
65754;BME280;69207;47.502;18.940;2023-04-24T02:45:22;97185.00;;;13.31;65.38
65754;BME280;69207;47.502;18.940;2023-04-24T02:46:25;97187.13;;;13.32;65.02
65754;BME280;69207;47.502;18.940;2023-04-24T02:47:28;97177.88;;;13.26;65.18
65754;BME280;69207;47.502;18.940;2023-04-24T02:48:31;97183.25;;;13.22;65.62
65754;BME280;69207;47.502;18.940;2023-04-24T02:49:34;97187.91;;;13.19;65.85
65754;BME280;69207;47.502;18.940;2023-04-24T02:50:37;97182.22;;;13.15;66.16
65754;BME280;69207;47.502;18.940;2023-04-24T02:51:40;97190.41;;;13.13;66.23
65754;BME280;69207;47.502;18.940;2023-04-24T02:52:43;97181.94;;;13.09;66.35
65754;BME280;69207;47.502;18.940;2023-04-24T02:53:46;97184.81;;;13.11;66.34
65754;BME280;69207;47.502;18.940;2023-04-24T02:54:49;97177.00;;;13.21;65.95
65754;BME280;69207;47.502;18.940;2023-04-24T02:55:52;97194.78;;;13.18;65.89
65754;BME280;69207;47.502;18.940;2023-04-24T02:56:55;97193.53;;;13.21;65.90
65754;BME280;69207;47.502;18.940;2023-04-24T02:57:59;97190.34;;;13.27;65.34
65754;BME280;69207;47.502;18.940;2023-04-24T02:59:03;97189.44;;;13.38;64.72
65754;BME280;69207;47.502;18.940;2023-04-24T03:00:07;97171.84;;;13.29;65.44
65754;BME280;69207;47.502;18.940;2023-04-24T03:01:10;97174.78;;;13.33;65.46
65754;BME280;69207;47.502;18.940;2023-04-24T03:02:13;97179.13;;;13.38;65.16
65754;BME280;69207;47.502;18.940;2023-04-24T03:03:16;97173.63;;;13.38;64.69
65754;BME280;69207;47.502;18.940;2023-04-24T03:04:20;97169.88;;;13.32;64.97
65754;BME280;69207;47.502;18.940;2023-04-24T03:05:25;97176.62;;;13.44;64.69
65754;BME280;69207;47.502;18.940;2023-04-24T03:06:30;97174.41;;;13.41;64.73
65754;BME280;69207;47.502;18.940;2023-04-24T03:07:35;97174.22;;;13.37;65.08
65754;BME280;69207;47.502;18.940;2023-04-24T03:08:39;97176.44;;;13.40;64.83
65754;BME280;69207;47.502;18.940;2023-04-24T03:09:42;97164.78;;;13.42;64.65
65754;BME280;69207;47.502;18.940;2023-04-24T03:10:46;97165.41;;;13.40;64.79
65754;BME280;69207;47.502;18.940;2023-04-24T03:11:50;97166.91;;;13.43;65.02
65754;BME280;69207;47.502;18.940;2023-04-24T03:12:53;97163.25;;;13.55;64.38
65754;BME280;69207;47.502;18.940;2023-04-24T03:13:57;97156.88;;;13.50;64.57
65754;BME280;69207;47.502;18.940;2023-04-24T03:15:00;97166.37;;;13.47;65.05
65754;BME280;69207;47.502;18.940;2023-04-24T03:16:04;97160.59;;;13.57;64.54
65754;BME280;69207;47.502;18.940;2023-04-24T03:17:08;97172.16;;;13.53;64.71
65754;BME280;69207;47.502;18.940;2023-04-24T03:18:11;97163.41;;;13.59;64.26
65754;BME280;69207;47.502;18.940;2023-04-24T03:19:14;97164.75;;;13.58;64.33
65754;BME280;69207;47.502;18.940;2023-04-24T03:20:17;97166.81;;;13.57;64.46
65754;BME280;69207;47.502;18.940;2023-04-24T03:21:20;97166.09;;;13.57;64.59
65754;BME280;69207;47.502;18.940;2023-04-24T03:22:23;97170.19;;;13.71;63.74
65754;BME280;69207;47.502;18.940;2023-04-24T03:23:26;97165.50;;;13.76;63.01
65754;BME280;69207;47.502;18.940;2023-04-24T03:24:29;97169.62;;;13.75;62.70
65754;BME280;69207;47.502;18.940;2023-04-24T03:25:33;97168.41;;;13.62;62.88
65754;BME280;69207;47.502;18.940;2023-04-24T03:26:36;97165.41;;;13.56;63.18
65754;BME280;69207;47.502;18.940;2023-04-24T03:27:39;97166.75;;;13.55;63.33
65754;BME280;69207;47.502;18.940;2023-04-24T03:28:42;97172.25;;;13.55;63.15
65754;BME280;69207;47.502;18.940;2023-04-24T03:29:45;97157.66;;;13.53;63.30
65754;BME280;69207;47.502;18.940;2023-04-24T03:30:48;97169.66;;;13.59;62.70
65754;BME280;69207;47.502;18.940;2023-04-24T03:31:58;97167.00;;;13.61;62.26
65754;BME280;69207;47.502;18.940;2023-04-24T03:33:01;97161.53;;;13.63;61.92
65754;BME280;69207;47.502;18.940;2023-04-24T03:34:04;97161.47;;;13.61;62.17
65754;BME280;69207;47.502;18.940;2023-04-24T03:35:07;97161.16;;;13.71;61.34
65754;BME280;69207;47.502;18.940;2023-04-24T03:36:11;97157.22;;;13.76;60.50
65754;BME280;69207;47.502;18.940;2023-04-24T03:37:15;97152.53;;;13.79;60.27
65754;BME280;69207;47.502;18.940;2023-04-24T03:38:18;97158.75;;;13.79;60.05
65754;BME280;69207;47.502;18.940;2023-04-24T03:39:21;97158.25;;;13.67;60.75
65754;BME280;69207;47.502;18.940;2023-04-24T03:40:23;97156.66;;;13.62;61.10
65754;BME280;69207;47.502;18.940;2023-04-24T03:41:26;97167.00;;;13.61;61.04
65754;BME280;69207;47.502;18.940;2023-04-24T03:42:29;97159.22;;;13.73;60.51
65754;BME280;69207;47.502;18.940;2023-04-24T03:43:32;97163.09;;;13.84;59.85
65754;BME280;69207;47.502;18.940;2023-04-24T03:44:37;97162.47;;;13.86;59.66
65754;BME280;69207;47.502;18.940;2023-04-24T03:45:40;97159.13;;;13.71;60.45
65754;BME280;69207;47.502;18.940;2023-04-24T03:46:42;97159.84;;;13.72;60.45
65754;BME280;69207;47.502;18.940;2023-04-24T03:47:46;97161.69;;;13.83;60.10
65754;BME280;69207;47.502;18.940;2023-04-24T03:48:49;97161.09;;;13.69;60.58
65754;BME280;69207;47.502;18.940;2023-04-24T03:49:52;97163.22;;;13.70;60.81
65754;BME280;69207;47.502;18.940;2023-04-24T03:50:56;97157.66;;;13.86;59.96
65754;BME280;69207;47.502;18.940;2023-04-24T03:52:00;97163.97;;;13.89;58.78
65754;BME280;69207;47.502;18.940;2023-04-24T03:53:03;97161.59;;;13.81;59.33
65754;BME280;69207;47.502;18.940;2023-04-24T03:54:06;97167.09;;;13.81;59.23
65754;BME280;69207;47.502;18.940;2023-04-24T03:55:09;97156.22;;;13.85;59.04
65754;BME280;69207;47.502;18.940;2023-04-24T03:56:15;97148.94;;;13.76;59.37
65754;BME280;69207;47.502;18.940;2023-04-24T03:57:18;97147.62;;;13.77;59.73
65754;BME280;69207;47.502;18.940;2023-04-24T03:58:22;97144.25;;;13.79;59.16
65754;BME280;69207;47.502;18.940;2023-04-24T03:59:25;97137.19;;;13.76;59.28
65754;BME280;69207;47.502;18.940;2023-04-24T04:00:28;97137.59;;;13.68;59.81
65754;BME280;69207;47.502;18.940;2023-04-24T04:01:36;97147.03;;;13.63;59.73
65754;BME280;69207;47.502;18.940;2023-04-24T04:02:39;97136.63;;;13.61;59.99
65754;BME280;69207;47.502;18.940;2023-04-24T04:03:42;97130.81;;;13.71;59.15
65754;BME280;69207;47.502;18.940;2023-04-24T04:04:46;97125.78;;;13.83;58.25
65754;BME280;69207;47.502;18.940;2023-04-24T04:05:49;97137.69;;;13.88;58.36
65754;BME280;69207;47.502;18.940;2023-04-24T04:06:52;97135.97;;;13.79;58.58
65754;BME280;69207;47.502;18.940;2023-04-24T04:07:55;97135.41;;;13.82;58.41
65754;BME280;69207;47.502;18.940;2023-04-24T04:08:59;97142.44;;;13.85;58.25
65754;BME280;69207;47.502;18.940;2023-04-24T04:10:02;97144.94;;;13.79;58.00
65754;BME280;69207;47.502;18.940;2023-04-24T04:11:06;97141.00;;;13.84;57.50
65754;BME280;69207;47.502;18.940;2023-04-24T04:12:09;97138.56;;;13.92;56.81
65754;BME280;69207;47.502;18.940;2023-04-24T04:13:12;97136.28;;;14.05;57.08
65754;BME280;69207;47.502;18.940;2023-04-24T04:14:15;97138.91;;;14.00;57.33
65754;BME280;69207;47.502;18.940;2023-04-24T04:15:17;97141.50;;;13.96;57.33
65754;BME280;69207;47.502;18.940;2023-04-24T04:16:20;97146.38;;;13.98;56.95
65754;BME280;69207;47.502;18.940;2023-04-24T04:17:26;97137.63;;;14.04;56.79
65754;BME280;69207;47.502;18.940;2023-04-24T04:18:29;97148.31;;;14.11;56.29
65754;BME280;69207;47.502;18.940;2023-04-24T04:19:32;97145.53;;;14.11;56.05
65754;BME280;69207;47.502;18.940;2023-04-24T04:20:36;97143.72;;;14.18;56.02
65754;BME280;69207;47.502;18.940;2023-04-24T04:21:39;97145.31;;;14.23;55.61
65754;BME280;69207;47.502;18.940;2023-04-24T04:22:42;97146.00;;;14.23;55.76
65754;BME280;69207;47.502;18.940;2023-04-24T04:23:46;97135.44;;;14.18;56.44
65754;BME280;69207;47.502;18.940;2023-04-24T04:24:49;97138.03;;;14.14;57.37
65754;BME280;69207;47.502;18.940;2023-04-24T04:25:53;97137.88;;;14.10;57.78
65754;BME280;69207;47.502;18.940;2023-04-24T04:26:57;97132.28;;;14.08;58.09
65754;BME280;69207;47.502;18.940;2023-04-24T04:28:00;97135.84;;;14.10;58.52
65754;BME280;69207;47.502;18.940;2023-04-24T04:29:04;97141.81;;;14.05;58.78
65754;BME280;69207;47.502;18.940;2023-04-24T04:30:09;97136.16;;;14.00;58.80
65754;BME280;69207;47.502;18.940;2023-04-24T04:31:12;97149.06;;;13.96;58.97
65754;BME280;69207;47.502;18.940;2023-04-24T04:32:15;97149.19;;;13.82;59.78
65754;BME280;69207;47.502;18.940;2023-04-24T04:33:21;97152.06;;;13.84;59.15
65754;BME280;69207;47.502;18.940;2023-04-24T04:34:24;97153.88;;;13.78;59.75
65754;BME280;69207;47.502;18.940;2023-04-24T04:35:27;97156.97;;;13.70;59.72
65754;BME280;69207;47.502;18.940;2023-04-24T04:36:30;97151.31;;;13.66;59.90
65754;BME280;69207;47.502;18.940;2023-04-24T04:37:34;97144.81;;;13.59;60.32
65754;BME280;69207;47.502;18.940;2023-04-24T04:38:37;97143.69;;;13.48;60.55
65754;BME280;69207;47.502;18.940;2023-04-24T04:39:42;97141.56;;;13.47;61.15
65754;BME280;69207;47.502;18.940;2023-04-24T04:40:45;97143.53;;;13.44;61.21
65754;BME280;69207;47.502;18.940;2023-04-24T04:41:48;97147.97;;;13.52;60.64
65754;BME280;69207;47.502;18.940;2023-04-24T04:42:51;97140.56;;;13.56;60.55
65754;BME280;69207;47.502;18.940;2023-04-24T04:43:55;97136.22;;;13.51;60.37
65754;BME280;69207;47.502;18.940;2023-04-24T04:45:01;97134.44;;;13.42;60.76
65754;BME280;69207;47.502;18.940;2023-04-24T04:46:05;97128.22;;;13.41;60.99
65754;BME280;69207;47.502;18.940;2023-04-24T04:47:08;97135.31;;;13.46;60.83
65754;BME280;69207;47.502;18.940;2023-04-24T04:48:11;97131.22;;;13.47;60.73
65754;BME280;69207;47.502;18.940;2023-04-24T04:49:16;97128.84;;;13.40;61.21
65754;BME280;69207;47.502;18.940;2023-04-24T04:50:19;97136.06;;;13.31;61.98
65754;BME280;69207;47.502;18.940;2023-04-24T04:51:23;97127.63;;;13.27;62.67
65754;BME280;69207;47.502;18.940;2023-04-24T04:52:26;97132.84;;;13.37;62.35
65754;BME280;69207;47.502;18.940;2023-04-24T04:53:29;97130.53;;;13.31;62.36
65754;BME280;69207;47.502;18.940;2023-04-24T04:54:32;97148.69;;;13.36;62.34
65754;BME280;69207;47.502;18.940;2023-04-24T04:55:36;97132.56;;;13.46;61.83
65754;BME280;69207;47.502;18.940;2023-04-24T04:56:39;97134.44;;;13.42;61.67
65754;BME280;69207;47.502;18.940;2023-04-24T04:57:42;97133.63;;;13.55;61.48
65754;BME280;69207;47.502;18.940;2023-04-24T04:58:45;97132.81;;;13.53;61.54
65754;BME280;69207;47.502;18.940;2023-04-24T04:59:48;97122.78;;;13.43;62.06
65754;BME280;69207;47.502;18.940;2023-04-24T05:00:51;97129.72;;;13.44;62.31
65754;BME280;69207;47.502;18.940;2023-04-24T05:01:54;97118.56;;;13.58;61.54
65754;BME280;69207;47.502;18.940;2023-04-24T05:03:05;97128.09;;;13.55;61.74
65754;BME280;69207;47.502;18.940;2023-04-24T05:04:22;97116.91;;;13.51;62.18
65754;BME280;69207;47.502;18.940;2023-04-24T05:05:26;97122.31;;;13.49;62.35
65754;BME280;69207;47.502;18.940;2023-04-24T05:06:29;97126.53;;;13.50;62.25
65754;BME280;69207;47.502;18.940;2023-04-24T05:07:34;97125.63;;;13.45;62.36
65754;BME280;69207;47.502;18.940;2023-04-24T05:08:38;97128.13;;;13.39;62.87
65754;BME280;69207;47.502;18.940;2023-04-24T05:09:41;97129.03;;;13.44;62.92
65754;BME280;69207;47.502;18.940;2023-04-24T05:10:44;97133.97;;;13.47;63.08
65754;BME280;69207;47.502;18.940;2023-04-24T05:11:47;97131.72;;;13.60;62.58
65754;BME280;69207;47.502;18.940;2023-04-24T05:12:49;97127.66;;;13.61;62.48
65754;BME280;69207;47.502;18.940;2023-04-24T05:13:52;97128.22;;;13.75;62.02
65754;BME280;69207;47.502;18.940;2023-04-24T05:14:55;97125.22;;;13.69;62.22
65754;BME280;69207;47.502;18.940;2023-04-24T05:15:58;97125.56;;;13.77;62.24
65754;BME280;69207;47.502;18.940;2023-04-24T05:17:02;97126.09;;;13.73;62.24
65754;BME280;69207;47.502;18.940;2023-04-24T05:18:06;97121.81;;;13.70;62.52
65754;BME280;69207;47.502;18.940;2023-04-24T05:19:09;97128.50;;;13.65;62.81
65754;BME280;69207;47.502;18.940;2023-04-24T05:20:13;97125.50;;;13.59;63.28
65754;BME280;69207;47.502;18.940;2023-04-24T05:21:17;97130.13;;;13.55;63.74
65754;BME280;69207;47.502;18.940;2023-04-24T05:22:20;97123.44;;;13.60;63.41
65754;BME280;69207;47.502;18.940;2023-04-24T05:23:23;97122.38;;;13.67;63.33
65754;BME280;69207;47.502;18.940;2023-04-24T05:24:27;97125.91;;;13.69;63.10
65754;BME280;69207;47.502;18.940;2023-04-24T05:25:29;97130.09;;;13.70;63.10
65754;BME280;69207;47.502;18.940;2023-04-24T05:26:38;97136.78;;;13.65;63.72
65754;BME280;69207;47.502;18.940;2023-04-24T05:27:41;97145.25;;;13.69;64.38
65754;BME280;69207;47.502;18.940;2023-04-24T05:28:44;97145.06;;;13.65;64.93
65754;BME280;69207;47.502;18.940;2023-04-24T05:29:47;97147.91;;;13.67;65.85
65754;BME280;69207;47.502;18.940;2023-04-24T05:30:50;97144.34;;;13.65;66.45
65754;BME280;69207;47.502;18.940;2023-04-24T05:31:53;97146.66;;;13.70;66.19